Time;durP1;ratioP1;P1;durP2;ratioP2;P2;SDS_P1;SDS_P2;PMS_P1;PMS_P2;Temp;Humidity;BMP_temperature;BMP_pressure;BME280_temperature;BME280_humidity;BME280_pressure;Samples;Min_cycle;Max_cycle;Signal;HPM_P1;HPM_P2
2022/12/21 00:01:50;;;;;;;1.10;0.67;;;9.50;99.90;;;;;;5057565;28;20435;-57
2022/12/21 00:04:19;;;;;;;2.83;0.57;;;9.60;99.90;;;;;;5057030;28;20447;-58
2022/12/21 00:06:46;;;;;;;0.80;0.70;;;9.50;99.90;;;;;;5056596;28;20463;-58
2022/12/21 00:09:15;;;;;;;1.17;0.60;;;9.60;99.90;;;;;;5056834;28;20824;-58
2022/12/21 00:11:42;;;;;;;4.50;0.50;;;9.50;99.90;;;;;;5055498;28;20470;-56
2022/12/21 00:14:10;;;;;;;0.97;0.70;;;9.50;99.90;;;;;;5055214;28;20448;-57
2022/12/21 00:17:33;;;;;;;1.30;0.70;;;9.50;99.90;;;;;;5057430;28;20475;-57
2022/12/21 00:20:01;;;;;;;0.90;0.60;;;9.50;99.90;;;;;;5053830;28;20549;-56
2022/12/21 00:22:28;;;;;;;1.10;0.70;;;9.50;99.90;;;;;;5045969;28;20577;-57
2022/12/21 00:24:56;;;;;;;1.00;0.60;;;9.50;99.90;;;;;;5056136;28;20938;-56
2022/12/21 00:27:23;;;;;;;0.90;0.57;;;9.50;99.90;;;;;;5057097;28;20863;-56
2022/12/21 00:29:50;;;;;;;1.20;0.53;;;9.50;99.90;;;;;;5075249;28;20497;-58
2022/12/21 00:32:17;;;;;;;1.87;0.60;;;9.50;99.90;;;;;;5072418;28;20584;-57
2022/12/21 00:34:45;;;;;;;0.97;0.50;;;9.60;99.90;;;;;;5076769;28;20537;-58
2022/12/21 00:37:13;;;;;;;2.47;0.60;;;9.60;99.90;;;;;;5076960;28;20513;-56
2022/12/21 00:39:43;;;;;;;0.70;0.50;;;9.70;99.90;;;;;;5074655;28;20577;-55
2022/12/21 00:42:14;;;;;;;0.80;0.60;;;9.70;99.90;;;;;;5068602;28;20939;-57
2022/12/21 00:44:41;;;;;;;2.03;0.70;;;9.80;99.90;;;;;;5049222;28;20513;-57
2022/12/21 00:47:09;;;;;;;1.30;0.60;;;9.80;99.90;;;;;;5056506;28;20534;-58
2022/12/21 00:49:36;;;;;;;1.80;0.60;;;9.80;99.90;;;;;;5055602;28;20462;-57
2022/12/21 00:52:03;;;;;;;0.90;0.60;;;9.90;99.90;;;;;;5056003;28;20586;-57
2022/12/21 00:54:32;;;;;;;1.07;0.60;;;9.80;99.90;;;;;;5056763;28;20517;-57
2022/12/21 00:56:59;;;;;;;1.03;0.50;;;9.90;99.90;;;;;;5056390;28;20790;-58
2022/12/21 00:59:26;;;;;;;1.07;0.50;;;9.90;99.90;;;;;;5056534;28;20550;-57
2022/12/21 01:01:53;;;;;;;0.70;0.50;;;9.90;99.90;;;;;;5069649;28;20450;-54
2022/12/21 01:04:21;;;;;;;0.63;0.40;;;10.00;99.90;;;;;;5075634;28;20569;-55
2022/12/21 01:06:48;;;;;;;0.80;0.50;;;10.00;99.90;;;;;;5075535;28;20538;-54
2022/12/21 01:09:15;;;;;;;1.23;0.60;;;10.00;99.90;;;;;;5075998;28;20456;-56
2022/12/21 01:11:44;;;;;;;0.60;0.40;;;10.00;99.90;;;;;;5072088;28;20568;-57
2022/12/21 01:14:11;;;;;;;1.73;0.50;;;10.00;99.90;;;;;;5076156;28;20470;-57
2022/12/21 01:16:38;;;;;;;0.70;0.50;;;10.00;99.90;;;;;;5076301;28;20973;-58
2022/12/21 01:19:07;;;;;;;0.80;0.60;;;9.90;99.90;;;;;;5075524;28;20545;-58
2022/12/21 01:21:35;;;;;;;1.00;0.60;;;9.90;99.90;;;;;;5076406;28;20443;-57
2022/12/21 01:24:02;;;;;;;0.80;0.50;;;9.80;99.90;;;;;;5075551;28;20482;-57
2022/12/21 01:26:30;;;;;;;1.27;0.57;;;9.80;99.90;;;;;;5076067;28;20454;-57
2022/12/21 01:28:59;;;;;;;1.13;0.50;;;9.80;99.90;;;;;;5074498;28;20577;-56
2022/12/21 01:31:26;;;;;;;0.87;0.53;;;9.80;99.90;;;;;;5073014;28;20553;-57
2022/12/21 01:33:53;;;;;;;1.43;0.40;;;9.80;99.90;;;;;;5075823;28;20529;-57
2022/12/21 01:36:22;;;;;;;0.80;0.50;;;9.70;99.90;;;;;;5076524;28;20540;-56
2022/12/21 01:38:50;;;;;;;0.87;0.53;;;9.70;99.90;;;;;;5074408;28;20493;-55
2022/12/21 01:41:19;;;;;;;1.20;0.50;;;9.70;99.90;;;;;;5076361;28;20493;-54
2022/12/21 01:43:49;;;;;;;0.87;0.50;;;9.70;99.90;;;;;;5075395;28;20577;-53
2022/12/21 01:46:24;;;;;;;0.80;0.40;;;9.70;99.90;;;;;;5075016;28;20554;-55
2022/12/21 01:48:59;;;;;;;1.33;0.60;;;9.70;99.90;;;;;;5072512;28;20961;-52
2022/12/21 01:51:27;;;;;;;1.03;0.60;;;9.70;99.90;;;;;;5075606;28;20552;-54
2022/12/21 01:53:58;;;;;;;0.77;0.50;;;9.60;99.90;;;;;;5075515;28;20539;-55
2022/12/21 01:56:31;;;;;;;0.60;0.50;;;9.60;99.90;;;;;;5066912;28;20554;-56
2022/12/21 01:59:00;;;;;;;1.10;0.60;;;9.60;99.90;;;;;;5075153;28;20469;-56
2022/12/21 02:01:30;;;;;;;0.93;0.57;;;9.60;99.90;;;;;;5073072;28;20509;-54
2022/12/21 02:03:58;;;;;;;0.50;0.40;;;9.60;99.90;;;;;;5074302;28;20833;-55
2022/12/21 02:06:31;;;;;;;0.93;0.60;;;9.60;99.90;;;;;;5073944;28;20466;-55
2022/12/21 02:08:59;;;;;;;2.80;0.53;;;9.60;99.90;;;;;;5074569;28;20542;-54
2022/12/21 02:11:27;;;;;;;0.70;0.57;;;9.60;99.90;;;;;;5070134;28;20549;-55
2022/12/21 02:13:54;;;;;;;1.67;0.60;;;9.60;99.90;;;;;;5075242;28;20583;-54
2022/12/21 02:16:26;;;;;;;1.20;0.70;;;9.50;99.90;;;;;;5078613;28;20549;-52
2022/12/21 02:19:32;;;;;;;0.93;0.57;;;9.50;99.90;;;;;;5077702;28;20559;-53
2022/12/21 02:22:05;;;;;;;1.57;0.50;;;9.50;99.90;;;;;;5025468;28;20558;-53
2022/12/21 02:25:02;;;;;;;0.60;0.40;;;9.50;99.90;;;;;;5059133;28;20589;-57
2022/12/21 02:28:08;;;;;;;0.60;0.50;;;9.50;99.90;;;;;;5059074;28;20481;-54
2022/12/21 02:30:59;;;;;;;0.97;0.60;;;9.40;99.90;;;;;;5069654;28;20492;-55
2022/12/21 02:33:36;;;;;;;0.67;0.40;;;9.50;99.90;;;;;;5075295;28;20494;-54
2022/12/21 02:36:20;;;;;;;0.70;0.50;;;9.60;99.90;;;;;;5078609;28;20545;-55
2022/12/21 02:38:59;;;;;;;0.60;0.40;;;9.60;99.90;;;;;;5079045;28;20474;-54
2022/12/21 02:41:37;;;;;;;0.70;0.40;;;9.60;99.90;;;;;;5076830;28;20470;-55
2022/12/21 02:44:13;;;;;;;0.80;0.40;;;9.60;99.90;;;;;;5076409;28;20938;-54
2022/12/21 02:46:51;;;;;;;0.80;0.50;;;9.80;99.90;;;;;;5078551;28;20446;-53
2022/12/21 02:49:23;;;;;;;1.27;0.43;;;9.80;99.90;;;;;;5078216;28;20538;-55
2022/12/21 02:51:58;;;;;;;1.07;0.50;;;9.80;99.90;;;;;;5076288;28;20979;-52
2022/12/21 02:54:27;;;;;;;1.10;0.40;;;9.80;99.90;;;;;;5078443;28;20588;-52
2022/12/21 02:56:54;;;;;;;1.30;0.53;;;9.70;99.90;;;;;;5077882;28;20449;-56
2022/12/21 02:59:28;;;;;;;1.47;0.60;;;9.70;99.90;;;;;;5078906;28;20534;-54
2022/12/21 03:02:24;;;;;;;0.97;0.60;;;9.70;99.90;;;;;;5078265;28;20820;-55
2022/12/21 03:05:12;;;;;;;0.60;0.40;;;9.70;99.90;;;;;;5052087;28;20576;-56
2022/12/21 03:07:51;;;;;;;0.70;0.40;;;9.70;99.90;;;;;;5078937;28;20540;-54
2022/12/21 03:10:32;;;;;;;0.83;0.50;;;9.60;99.90;;;;;;5077347;28;20469;-56
2022/12/21 03:13:10;;;;;;;0.87;0.50;;;9.60;99.90;;;;;;5078483;28;20450;-57
2022/12/21 03:15:45;;;;;;;0.93;0.47;;;9.60;99.90;;;;;;5078907;28;20489;-56
2022/12/21 03:18:26;;;;;;;0.67;0.50;;;9.60;99.90;;;;;;5078332;28;20528;-57
2022/12/21 03:20:59;;;;;;;0.73;0.40;;;9.60;99.90;;;;;;5077246;28;20549;-57
2022/12/21 03:23:33;;;;;;;0.70;0.40;;;9.60;99.90;;;;;;5077391;28;20577;-57
2022/12/21 03:26:04;;;;;;;1.07;0.40;;;9.60;99.90;;;;;;5076559;28;20526;-55
2022/12/21 03:28:35;;;;;;;0.50;0.40;;;9.60;99.90;;;;;;5068190;28;20581;-55
2022/12/21 03:31:06;;;;;;;0.67;0.40;;;9.60;99.90;;;;;;5077275;28;20554;-56
2022/12/21 03:33:40;;;;;;;1.60;0.50;;;9.60;99.90;;;;;;5066370;28;20483;-55
2022/12/21 03:36:13;;;;;;;1.67;0.60;;;9.60;99.90;;;;;;5078323;28;20509;-54
2022/12/21 03:38:44;;;;;;;3.00;0.50;;;9.60;99.90;;;;;;5077941;28;20529;-51
2022/12/21 03:41:18;;;;;;;0.60;0.40;;;9.60;99.90;;;;;;5076795;28;20561;-54
2022/12/21 03:43:50;;;;;;;1.50;0.53;;;9.60;99.90;;;;;;5077548;28;20572;-55
2022/12/21 03:46:22;;;;;;;0.80;0.50;;;9.60;99.90;;;;;;5077910;28;20549;-54
2022/12/21 03:48:56;;;;;;;0.90;0.50;;;9.60;99.90;;;;;;5074929;28;20522;-50
2022/12/21 03:51:32;;;;;;;2.00;0.50;;;9.60;99.90;;;;;;5077536;28;20917;-51
2022/12/21 03:54:07;;;;;;;2.40;0.50;;;9.60;99.90;;;;;;5078138;28;20537;-52
2022/12/21 03:56:37;;;;;;;0.90;0.50;;;9.50;99.90;;;;;;5077945;28;20552;-51
2022/12/21 03:59:07;;;;;;;0.67;0.40;;;9.50;99.90;;;;;;5076127;28;20844;-51
2022/12/21 04:01:42;;;;;;;0.80;0.50;;;9.50;99.90;;;;;;5077369;28;20457;-50
2022/12/21 04:04:20;;;;;;;0.70;0.40;;;9.50;99.90;;;;;;5076978;28;20474;-52
2022/12/21 04:06:49;;;;;;;2.13;0.77;;;9.40;99.90;;;;;;5073867;28;20541;-54
2022/12/21 04:09:17;;;;;;;1.13;0.40;;;9.50;99.90;;;;;;5077466;28;20547;-50
2022/12/21 04:14:29;;;;;;;1.17;0.50;;;9.40;99.90;;;;;;5076692;28;20504;-50
2022/12/21 04:16:56;;;;;;;0.87;0.50;;;9.40;99.90;;;;;;5072811;28;20462;-50
2022/12/21 04:28:06;;;;;;;1.20;0.50;;;9.40;99.90;;;;;;5076971;28;20422;-53
2022/12/21 04:30:26;;;;;;;0.50;0.37;;;9.50;99.90;;;;;;5077095;28;20943;-54
2022/12/21 04:32:53;;;;;;;0.77;0.47;;;9.50;99.90;;;;;;5074480;28;20553;-56
2022/12/21 04:35:21;;;;;;;0.60;0.40;;;9.50;99.90;;;;;;5076806;28;20546;-55
2022/12/21 04:37:47;;;;;;;3.37;0.60;;;9.50;99.90;;;;;;5076417;28;20447;-53
2022/12/21 04:40:15;;;;;;;0.70;0.43;;;9.50;99.90;;;;;;5077027;28;20446;-53
2022/12/21 04:42:42;;;;;;;0.80;0.50;;;9.60;99.90;;;;;;5075387;28;20557;-56
2022/12/21 04:45:10;;;;;;;0.70;0.40;;;9.50;99.90;;;;;;5076248;28;20988;-57
2022/12/21 04:47:37;;;;;;;1.03;0.50;;;9.50;99.90;;;;;;5072283;28;20909;-57
2022/12/21 04:50:05;;;;;;;0.57;0.40;;;9.60;99.90;;;;;;5076759;28;20480;-57
2022/12/21 04:52:34;;;;;;;0.80;0.50;;;9.60;99.90;;;;;;5076977;28;20447;-56
2022/12/21 04:55:02;;;;;;;0.70;0.40;;;9.60;99.90;;;;;;5076840;28;20728;-56
2022/12/21 04:57:30;;;;;;;0.70;0.50;;;9.60;99.90;;;;;;5074157;28;20739;-57
2022/12/21 04:59:57;;;;;;;0.90;0.40;;;9.60;99.90;;;;;;5076228;28;20486;-56
2022/12/21 05:02:24;;;;;;;0.60;0.40;;;9.60;99.90;;;;;;5076279;28;20533;-56
2022/12/21 05:04:51;;;;;;;1.43;0.40;;;9.70;99.90;;;;;;5075488;28;20581;-55
2022/12/21 05:07:19;;;;;;;0.60;0.43;;;9.70;99.90;;;;;;5073527;28;20957;-56
2022/12/21 05:09:47;;;;;;;0.70;0.40;;;9.70;99.90;;;;;;5074373;28;20869;-57
2022/12/21 05:12:14;;;;;;;0.73;0.40;;;9.70;99.90;;;;;;5073748;28;20533;-55
2022/12/21 05:14:42;;;;;;;0.60;0.40;;;9.80;99.90;;;;;;5071809;28;20453;-54
2022/12/21 05:17:09;;;;;;;0.73;0.40;;;9.80;99.90;;;;;;5068134;28;20549;-56
2022/12/21 05:19:36;;;;;;;0.63;0.40;;;9.80;99.90;;;;;;5073388;28;20459;-52
2022/12/21 05:22:03;;;;;;;0.60;0.40;;;9.80;99.90;;;;;;5073893;28;20451;-55
2022/12/21 05:24:31;;;;;;;0.80;0.40;;;9.80;99.90;;;;;;5073486;28;20486;-52
2022/12/21 05:26:59;;;;;;;0.63;0.40;;;9.80;99.90;;;;;;5074718;28;20449;-54
2022/12/21 05:29:26;;;;;;;0.60;0.40;;;9.80;99.90;;;;;;5075286;28;20470;-55
2022/12/21 05:31:54;;;;;;;0.70;0.40;;;9.80;99.90;;;;;;5072567;28;20558;-56
2022/12/21 05:34:21;;;;;;;0.50;0.40;;;9.80;99.90;;;;;;5075181;28;20533;-55
2022/12/21 05:36:48;;;;;;;0.50;0.30;;;9.80;99.90;;;;;;5074813;28;20535;-56
2022/12/21 05:39:15;;;;;;;0.70;0.50;;;9.90;99.90;;;;;;5074884;28;20478;-56
2022/12/21 05:41:42;;;;;;;0.60;0.40;;;9.80;99.90;;;;;;5069443;28;20462;-53
2022/12/21 05:44:11;;;;;;;3.60;0.60;;;9.80;99.90;;;;;;5074234;28;20574;-56
2022/12/21 05:46:38;;;;;;;1.40;0.53;;;9.80;99.90;;;;;;5074516;28;20446;-55
2022/12/21 05:49:06;;;;;;;1.07;0.40;;;9.80;99.90;;;;;;5076666;28;20533;-54
2022/12/21 05:51:33;;;;;;;0.50;0.40;;;9.70;99.90;;;;;;5078643;28;20466;-56
2022/12/21 05:54:01;;;;;;;4.83;0.60;;;9.80;99.90;;;;;;5078935;28;20888;-55
2022/12/21 05:56:28;;;;;;;0.60;0.40;;;9.80;99.90;;;;;;5077293;28;20457;-55
2022/12/21 05:58:55;;;;;;;1.97;0.40;;;9.80;99.90;;;;;;5077189;28;20751;-53
2022/12/21 06:01:24;;;;;;;0.60;0.40;;;9.80;99.90;;;;;;5076082;28;20465;-54
2022/12/21 06:03:51;;;;;;;0.60;0.40;;;9.80;99.90;;;;;;5076954;28;20466;-56
2022/12/21 06:06:22;;;;;;;0.70;0.40;;;9.80;99.90;;;;;;5075097;28;20525;-55
2022/12/21 06:08:49;;;;;;;1.20;0.40;;;9.80;99.90;;;;;;5078097;28;20538;-55
2022/12/21 06:11:19;;;;;;;0.50;0.40;;;9.80;99.90;;;;;;5078518;28;20486;-55
2022/12/21 06:13:46;;;;;;;0.60;0.40;;;9.80;99.90;;;;;;5076249;28;20549;-56
2022/12/21 06:16:16;;;;;;;0.80;0.50;;;9.80;99.90;;;;;;5077130;28;20541;-52
2022/12/21 06:18:45;;;;;;;0.70;0.40;;;9.70;99.90;;;;;;5073033;28;20469;-55
2022/12/21 06:21:13;;;;;;;0.80;0.50;;;9.80;99.90;;;;;;5076053;28;20569;-56
2022/12/21 06:23:42;;;;;;;0.70;0.37;;;9.80;99.90;;;;;;5073492;28;20549;-55
2022/12/21 06:26:12;;;;;;;0.60;0.47;;;9.70;99.90;;;;;;5076353;28;20536;-58
2022/12/21 06:28:40;;;;;;;4.13;0.43;;;9.70;99.90;;;;;;5076139;28;20534;-58
2022/12/21 06:31:09;;;;;;;0.60;0.40;;;9.70;99.90;;;;;;5076367;28;20545;-58
2022/12/21 06:33:36;;;;;;;0.70;0.50;;;9.80;99.90;;;;;;5071467;28;20539;-57
2022/12/21 06:36:07;;;;;;;0.80;0.40;;;9.80;99.90;;;;;;5076701;28;20446;-57
2022/12/21 06:38:35;;;;;;;0.60;0.40;;;9.80;99.90;;;;;;5074956;28;20545;-58
2022/12/21 06:41:04;;;;;;;7.90;2.97;;;9.80;99.90;;;;;;5073708;28;20489;-57
2022/12/21 06:43:33;;;;;;;10.67;6.30;;;9.90;99.90;;;;;;5074337;28;20452;-57
2022/12/21 06:46:01;;;;;;;11.43;3.97;;;9.90;99.90;;;;;;5076082;28;20486;-57
2022/12/21 06:48:30;;;;;;;15.83;10.20;;;9.90;99.90;;;;;;5073456;28;20702;-59
2022/12/21 06:50:59;;;;;;;24.00;14.70;;;9.90;99.90;;;;;;5073625;28;20442;-58
2022/12/21 06:53:29;;;;;;;39.23;31.93;;;9.90;99.90;;;;;;5071270;28;20463;-58
2022/12/21 06:55:59;;;;;;;46.00;28.60;;;9.90;99.90;;;;;;5076060;28;20557;-55
2022/12/21 06:58:27;;;;;;;18.13;14.17;;;9.90;99.90;;;;;;5076732;28;20908;-56
2022/12/21 07:00:54;;;;;;;16.20;9.03;;;9.90;99.90;;;;;;5075112;28;20443;-51
2022/12/21 07:03:22;;;;;;;7.68;5.10;;;9.90;99.90;;;;;;5069940;28;20833;-56
2022/12/21 07:05:50;;;;;;;0.80;0.60;;;9.90;99.90;;;;;;5075519;28;20315;-55
2022/12/21 07:08:21;;;;;;;1.00;0.70;;;10.00;99.90;;;;;;5075792;28;20760;-55
2022/12/21 07:10:50;;;;;;;1.33;0.63;;;10.00;99.90;;;;;;5075337;28;20944;-55
2022/12/21 07:13:17;;;;;;;0.80;0.40;;;10.00;99.90;;;;;;5072019;28;20856;-55
2022/12/21 07:15:44;;;;;;;2.27;0.50;;;10.00;99.90;;;;;;5075802;28;20489;-60
2022/12/21 07:18:11;;;;;;;1.80;0.50;;;9.90;99.90;;;;;;5074179;28;20450;-54
2022/12/21 07:20:38;;;;;;;1.00;0.47;;;9.90;99.90;;;;;;5072976;28;20454;-55
2022/12/21 07:23:06;;;;;;;0.60;0.43;;;9.90;99.90;;;;;;5068662;28;20461;-56
2022/12/21 07:25:33;;;;;;;1.30;0.50;;;9.90;99.90;;;;;;5074565;28;20568;-55
2022/12/21 07:28:02;;;;;;;0.70;0.40;;;9.90;99.90;;;;;;5073597;28;20536;-55
2022/12/21 07:30:30;;;;;;;1.00;0.60;;;10.00;99.90;;;;;;5061151;28;20482;-56
2022/12/21 07:32:57;;;;;;;2.27;0.60;;;10.00;99.90;;;;;;5054585;28;20546;-56
2022/12/21 07:35:25;;;;;;;1.00;0.60;;;10.00;99.90;;;;;;5053987;28;20452;-57
2022/12/21 07:37:52;;;;;;;1.30;0.50;;;10.00;99.90;;;;;;5055608;28;20455;-54
2022/12/21 07:40:20;;;;;;;0.80;0.50;;;10.00;99.90;;;;;;5056120;28;20518;-56
2022/12/21 07:42:47;;;;;;;0.80;0.40;;;10.00;99.90;;;;;;5053607;28;20546;-55
2022/12/21 07:45:17;;;;;;;0.73;0.50;;;10.00;99.90;;;;;;5053254;28;20972;-53
2022/12/21 07:47:47;;;;;;;0.70;0.40;;;10.00;99.90;;;;;;5062719;28;20459;-53
2022/12/21 07:50:14;;;;;;;0.47;0.30;;;10.10;99.90;;;;;;5063757;28;20463;-54
2022/12/21 07:52:41;;;;;;;0.83;0.43;;;10.10;99.90;;;;;;5063251;28;20566;-55
2022/12/21 07:55:09;;;;;;;2.00;0.50;;;10.10;99.90;;;;;;5063240;28;20550;-54
2022/12/21 07:57:36;;;;;;;0.70;0.40;;;10.10;99.90;;;;;;5059280;28;20459;-53
2022/12/21 08:00:05;;;;;;;1.00;0.40;;;10.10;99.90;;;;;;5066309;28;20541;-54
2022/12/21 08:02:33;;;;;;;1.67;0.50;;;10.10;99.90;;;;;;5066168;28;20446;-52
2022/12/21 08:05:01;;;;;;;0.70;0.40;;;10.10;99.90;;;;;;5058960;28;20649;-54
2022/12/21 08:07:28;;;;;;;1.30;0.40;;;10.00;99.90;;;;;;5060827;28;20460;-50
2022/12/21 08:09:55;;;;;;;2.03;0.50;;;10.00;99.90;;;;;;5069252;28;20546;-52
2022/12/21 08:12:22;;;;;;;1.10;0.30;;;10.00;99.90;;;;;;5054139;28;20487;-55
2022/12/21 08:14:49;;;;;;;0.70;0.40;;;10.00;99.90;;;;;;5053405;28;20736;-54
2022/12/21 08:17:17;;;;;;;0.60;0.40;;;9.90;99.90;;;;;;5053383;28;20444;-53
2022/12/21 08:19:45;;;;;;;0.73;0.40;;;9.90;99.90;;;;;;5053764;28;20452;-52
2022/12/21 08:22:12;;;;;;;0.60;0.40;;;9.90;99.90;;;;;;5048162;28;20553;-52
2022/12/21 08:24:40;;;;;;;1.67;0.40;;;9.90;99.90;;;;;;5051442;28;20570;-57
2022/12/21 08:27:07;;;;;;;0.80;0.50;;;9.80;99.90;;;;;;5050609;28;20914;-55
2022/12/21 08:29:34;;;;;;;0.87;0.60;;;9.80;99.90;;;;;;5070092;28;20478;-59
2022/12/21 08:32:01;;;;;;;1.23;0.50;;;10.00;99.90;;;;;;5069816;28;20446;-54
2022/12/21 08:34:29;;;;;;;0.90;0.60;;;9.90;99.90;;;;;;5070118;28;20557;-54
2022/12/21 08:36:58;;;;;;;0.70;0.40;;;9.90;99.90;;;;;;5065559;28;20453;-54
2022/12/21 08:39:25;;;;;;;1.77;0.50;;;9.90;99.90;;;;;;5072564;28;20769;-54
2022/12/21 08:41:52;;;;;;;7.90;0.50;;;9.90;99.90;;;;;;5073124;28;20533;-60
2022/12/21 08:44:19;;;;;;;1.45;0.50;;;9.90;99.90;;;;;;5071698;28;20460;-59
2022/12/21 08:46:47;;;;;;;1.17;0.60;;;9.90;99.90;;;;;;5073338;28;20307;-58
2022/12/21 08:49:14;;;;;;;1.57;0.40;;;9.90;99.90;;;;;;5072307;28;20439;-58
2022/12/21 08:51:41;;;;;;;0.67;0.40;;;9.90;99.90;;;;;;5071060;28;20453;-58
2022/12/21 08:54:10;;;;;;;2.00;0.40;;;9.90;99.90;;;;;;5068771;28;20453;-58
2022/12/21 08:56:37;;;;;;;0.83;0.40;;;9.90;99.90;;;;;;5067158;28;20577;-58
2022/12/21 08:59:06;;;;;;;0.90;0.50;;;9.90;99.90;;;;;;5068310;28;20443;-59
2022/12/21 09:01:34;;;;;;;1.93;0.40;;;10.00;99.90;;;;;;5070763;28;20497;-59
2022/12/21 09:04:02;;;;;;;1.47;0.47;;;10.00;99.90;;;;;;5071584;28;20842;-59
2022/12/21 09:06:30;;;;;;;3.30;0.50;;;10.00;99.90;;;;;;5072646;28;20486;-59
2022/12/21 09:08:58;;;;;;;0.87;0.47;;;9.90;99.90;;;;;;5069709;28;21050;-59
2022/12/21 09:11:27;;;;;;;0.90;0.50;;;10.00;99.90;;;;;;5066110;28;20983;-60
2022/12/21 09:13:55;;;;;;;0.73;0.50;;;10.10;99.90;;;;;;5068994;28;20604;-62
2022/12/21 09:16:24;;;;;;;0.80;0.50;;;10.20;99.90;;;;;;5071849;28;20936;-61
2022/12/21 09:18:52;;;;;;;0.70;0.40;;;10.20;99.90;;;;;;5066583;28;20562;-62
2022/12/21 09:21:22;;;;;;;0.80;0.60;;;10.10;99.90;;;;;;5067428;28;20541;-61
2022/12/21 09:23:51;;;;;;;0.70;0.47;;;10.10;99.90;;;;;;5068823;28;20466;-61
2022/12/21 09:26:18;;;;;;;0.67;0.40;;;10.10;99.90;;;;;;5070804;28;20478;-59
2022/12/21 09:28:47;;;;;;;0.60;0.40;;;10.10;99.90;;;;;;5070370;28;20470;-61
2022/12/21 09:31:17;;;;;;;0.77;0.50;;;10.00;99.90;;;;;;5073152;28;20487;-61
2022/12/21 09:33:44;;;;;;;0.67;0.40;;;10.00;99.90;;;;;;5069211;28;20453;-61
2022/12/21 09:36:12;;;;;;;0.80;0.60;;;10.00;99.90;;;;;;5071180;28;20454;-62
2022/12/21 09:38:39;;;;;;;4.00;0.50;;;10.00;99.90;;;;;;5070999;28;20465;-58
2022/12/21 09:41:29;;;;;;;0.77;0.50;;;10.00;99.90;;;;;;5069809;28;20541;-61
2022/12/21 09:44:14;;;;;;;1.17;0.43;;;10.00;99.90;;;;;;5070916;28;20569;-60
2022/12/21 09:46:43;;;;;;;4.40;0.40;;;10.00;99.90;;;;;;5070586;28;20656;-59
2022/12/21 09:49:18;;;;;;;0.90;0.50;;;10.00;99.90;;;;;;5074094;28;20537;-61
2022/12/21 09:51:53;;;;;;;0.90;0.40;;;10.00;99.90;;;;;;5067723;28;20446;-60
2022/12/21 09:54:25;;;;;;;0.70;0.47;;;10.00;99.90;;;;;;5071865;28;20905;-60
2022/12/21 09:56:56;;;;;;;0.87;0.50;;;10.00;99.90;;;;;;5069194;28;20735;-60
2022/12/21 09:59:24;;;;;;;0.70;0.43;;;10.00;99.90;;;;;;5069244;28;20856;-60
2022/12/21 10:02:01;;;;;;;0.50;0.30;;;10.00;99.90;;;;;;5071798;28;20889;-60
2022/12/21 10:04:40;;;;;;;0.80;0.50;;;10.10;99.90;;;;;;5058464;28;20541;-61
2022/12/21 10:07:27;;;;;;;1.27;0.47;;;10.10;99.90;;;;;;5064044;28;20557;-61
2022/12/21 10:10:07;;;;;;;1.03;0.60;;;10.20;99.90;;;;;;5068955;28;20546;-60
2022/12/21 10:12:40;;;;;;;1.07;0.57;;;10.30;99.90;;;;;;5067886;28;20438;-61
2022/12/21 10:15:19;;;;;;;1.20;0.70;;;10.30;99.90;;;;;;5072623;28;20452;-61
2022/12/21 10:17:57;;;;;;;0.77;0.57;;;10.30;99.90;;;;;;5071127;28;20453;-60
2022/12/21 10:20:36;;;;;;;0.70;0.40;;;10.30;99.90;;;;;;5068639;28;20549;-60
2022/12/21 10:23:06;;;;;;;0.77;0.57;;;10.30;99.90;;;;;;5071597;28;20525;-61
2022/12/21 10:25:42;;;;;;;1.30;0.67;;;10.40;99.90;;;;;;5071720;28;20589;-60
2022/12/21 10:28:24;;;;;;;2.70;0.40;;;10.40;99.90;;;;;;5061329;28;20557;-59
2022/12/21 10:31:01;;;;;;;4.73;0.60;;;10.40;99.90;;;;;;5076273;28;20520;-62
2022/12/21 10:33:29;;;;;;;1.20;0.50;;;10.40;99.90;;;;;;5071908;28;20754;-62
2022/12/21 10:36:01;;;;;;;1.03;0.40;;;10.40;99.90;;;;;;5071477;28;20497;-61
2022/12/21 10:38:33;;;;;;;0.90;0.60;;;10.40;99.90;;;;;;5072576;28;20842;-60
2022/12/21 10:41:03;;;;;;;0.83;0.50;;;10.40;99.90;;;;;;5071788;28;21039;-61
2022/12/21 10:43:35;;;;;;;1.20;0.60;;;10.40;99.90;;;;;;5070249;28;20815;-61
2022/12/21 10:46:05;;;;;;;0.90;0.53;;;10.50;99.90;;;;;;5074852;28;20790;-60
2022/12/21 10:48:33;;;;;;;0.90;0.50;;;10.60;99.90;;;;;;5073067;28;20916;-61
2022/12/21 10:51:12;;;;;;;0.80;0.50;;;10.60;99.90;;;;;;5071124;28;20539;-61
2022/12/21 10:53:40;;;;;;;1.10;0.70;;;10.50;99.90;;;;;;5069794;28;20564;-61
2022/12/21 10:56:08;;;;;;;1.07;0.70;;;10.60;99.90;;;;;;5073180;28;20889;-62
2022/12/21 10:58:36;;;;;;;1.20;0.80;;;10.60;99.90;;;;;;5060459;28;20534;-62
2022/12/21 11:01:07;;;;;;;1.30;0.50;;;10.70;99.90;;;;;;5074145;28;20508;-64
2022/12/21 11:03:36;;;;;;;1.00;0.50;;;10.70;99.90;;;;;;5074906;28;20521;-63
2022/12/21 11:06:13;;;;;;;1.10;0.60;;;10.70;99.90;;;;;;5069582;28;20575;-63
2022/12/21 11:08:46;;;;;;;1.73;0.60;;;10.80;99.90;;;;;;5073577;28;20466;-63
2022/12/21 11:11:29;;;;;;;1.83;0.70;;;10.90;99.90;;;;;;5076259;28;20455;-63
2022/12/21 11:14:01;;;;;;;0.90;0.60;;;10.80;99.90;;;;;;5070508;28;20479;-63
2022/12/21 11:16:32;;;;;;;1.63;0.50;;;10.80;99.90;;;;;;5069901;28;20462;-62
2022/12/21 11:19:00;;;;;;;0.87;0.50;;;10.80;99.90;;;;;;5064732;28;20534;-63
2022/12/21 11:21:38;;;;;;;1.30;0.60;;;10.80;99.90;;;;;;5070322;28;20557;-62
2022/12/21 11:24:13;;;;;;;1.10;0.70;;;10.70;99.90;;;;;;5069611;28;20530;-62
2022/12/21 11:26:45;;;;;;;1.40;0.50;;;10.70;99.90;;;;;;5070591;28;20709;-62
2022/12/21 11:29:24;;;;;;;1.80;0.60;;;10.80;99.90;;;;;;5068883;28;20493;-62
2022/12/21 11:31:55;;;;;;;0.70;0.53;;;10.80;99.90;;;;;;5068311;28;20901;-61
2022/12/21 11:34:34;;;;;;;1.30;0.70;;;10.80;99.90;;;;;;5065950;28;20443;-62
2022/12/21 11:37:04;;;;;;;1.07;0.70;;;10.80;99.90;;;;;;5060623;28;20446;-61
2022/12/21 11:39:31;;;;;;;1.40;0.57;;;10.70;99.90;;;;;;5066277;28;20541;-62
2022/12/21 11:41:59;;;;;;;1.07;0.70;;;10.80;99.90;;;;;;5069056;28;20973;-62
2022/12/21 11:44:30;;;;;;;2.20;0.60;;;10.80;99.90;;;;;;5072793;28;20855;-61
2022/12/21 11:47:15;;;;;;;0.83;0.60;;;10.90;99.90;;;;;;5070522;28;20845;-61
2022/12/21 11:50:15;;;;;;;0.90;0.63;;;11.00;99.90;;;;;;5068610;28;20902;-62
2022/12/21 11:53:12;;;;;;;0.97;0.60;;;11.10;99.90;;;;;;5069604;28;20443;-61
2022/12/21 11:55:59;;;;;;;0.90;0.50;;;11.20;99.90;;;;;;5068508;28;20471;-61
2022/12/21 11:58:44;;;;;;;2.00;0.50;;;11.20;99.90;;;;;;5055188;28;20473;-62
2022/12/21 12:01:22;;;;;;;1.00;0.63;;;11.30;99.90;;;;;;5059155;28;20494;-61
2022/12/21 12:04:11;;;;;;;0.70;0.50;;;11.40;99.90;;;;;;5069650;28;20539;-61
2022/12/21 12:06:58;;;;;;;2.40;1.00;;;11.40;99.90;;;;;;5070717;28;20573;-62
2022/12/21 12:09:44;;;;;;;2.03;0.60;;;11.40;99.90;;;;;;5067234;28;20501;-62
2022/12/21 12:12:22;;;;;;;1.17;0.50;;;11.30;99.90;;;;;;5068510;28;20451;-61
2022/12/21 12:15:08;;;;;;;2.07;0.70;;;11.40;99.90;;;;;;5071022;28;20478;-62
2022/12/21 12:17:51;;;;;;;1.00;0.60;;;11.40;99.90;;;;;;5069907;28;20995;-62
2022/12/21 12:20:36;;;;;;;0.77;0.47;;;11.50;99.90;;;;;;5071034;28;20467;-62
2022/12/21 12:23:14;;;;;;;1.07;0.40;;;11.60;99.90;;;;;;5068872;28;20573;-61
2022/12/21 12:25:53;;;;;;;0.77;0.50;;;11.70;99.90;;;;;;5070071;28;20448;-62
2022/12/21 12:28:47;;;;;;;0.67;0.30;;;11.80;99.90;;;;;;5069849;28;20484;-62
2022/12/21 12:31:31;;;;;;;0.70;0.40;;;11.90;99.90;;;;;;5049283;28;20454;-62
2022/12/21 12:34:21;;;;;;;0.60;0.30;;;12.00;99.90;;;;;;5058587;28;20741;-62
2022/12/21 12:37:02;;;;;;;1.70;0.30;;;12.10;99.90;;;;;;5049918;28;20607;-61
2022/12/21 12:39:37;;;;;;;2.90;0.30;;;12.10;99.90;;;;;;5038005;28;20454;-62
2022/12/21 12:42:08;;;;;;;0.70;0.40;;;12.10;99.90;;;;;;5058591;28;20458;-61
2022/12/21 12:44:48;;;;;;;0.63;0.40;;;12.10;99.90;;;;;;5068691;28;20438;-61
2022/12/21 12:47:23;;;;;;;0.83;0.40;;;12.10;99.90;;;;;;5064287;28;21075;-61
2022/12/21 12:50:09;;;;;;;0.60;0.40;;;12.10;99.90;;;;;;5065641;28;20533;-61
2022/12/21 12:52:58;;;;;;;0.50;0.30;;;12.20;99.90;;;;;;5065321;28;20542;-61
2022/12/21 12:55:32;;;;;;;0.50;0.30;;;12.20;99.90;;;;;;5055938;28;20541;-61
2022/12/21 12:58:09;;;;;;;0.47;0.30;;;12.00;99.90;;;;;;5051446;28;20485;-61
2022/12/21 13:00:44;;;;;;;0.50;0.30;;;11.90;99.90;;;;;;5066163;28;20652;-61
2022/12/21 13:03:21;;;;;;;0.80;0.30;;;11.90;99.90;;;;;;5048806;28;20521;-61
2022/12/21 13:05:54;;;;;;;0.53;0.30;;;11.90;99.90;;;;;;5056638;28;21098;-61
2022/12/21 13:08:46;;;;;;;1.30;0.30;;;11.90;99.90;;;;;;5069404;28;20550;-61
2022/12/21 13:11:23;;;;;;;0.60;0.47;;;11.80;99.90;;;;;;5068050;28;20442;-61
2022/12/21 13:13:59;;;;;;;2.50;0.37;;;11.80;99.90;;;;;;5069955;28;20530;-61
2022/12/21 13:16:32;;;;;;;0.73;0.40;;;11.80;99.90;;;;;;5069696;28;20492;-60
2022/12/21 13:19:04;;;;;;;0.53;0.40;;;11.80;99.90;;;;;;5066560;28;20462;-63
2022/12/21 13:21:33;;;;;;;1.10;0.50;;;11.70;99.90;;;;;;5070803;28;20806;-62
2022/12/21 13:24:06;;;;;;;4.30;0.50;;;11.70;99.90;;;;;;5065246;28;20447;-62
2022/12/21 13:26:38;;;;;;;1.27;0.50;;;11.80;99.90;;;;;;5068196;28;20447;-61
2022/12/21 13:29:12;;;;;;;0.60;0.37;;;11.80;99.90;;;;;;5068091;28;20565;-62